METAR Data
IDs: Format: Raw Decoded Include TAF

Data at: 1729 UTC 03 Jun 2020

KCOU 031654Z 29004KT 10SM FEW033 SCT070 BKN085 30/21 A2991 RMK AO2 SLP121 T03000211
KCOU 031554Z 22012KT 10SM CLR 29/21 A2991 RMK AO2 SLP119 T02890211
KCOU 031454Z 23012KT 10SM FEW070 27/21 A2992 RMK AO2 SLP123 T02720211 50000
KCOU 031354Z 23011KT 10SM CLR 25/20 A2994 RMK AO2 SLP130 T02500200
KCOU 031254Z 24010KT 10SM SCT060 23/19 A2994 RMK AO2 SLP128 T02330189
KCOU 031154Z 22010KT 10SM CLR 22/18 A2992 RMK AO2 SLP123 T02170183 10217 20200 58008
KCOU 031054Z AUTO 23008KT 10SM CLR 21/18 A2994 RMK AO2 SLP129 T02060178
KCOU 030954Z AUTO 22007KT 10SM CLR 21/17 A2993 RMK AO2 SLP128 T02060172
KCOU 030854Z AUTO 21007KT 10SM CLR 20/17 A2995 RMK AO2 SLP131 T02000172 56014
KCOU 030754Z AUTO 22009KT 10SM CLR 21/18 A2995 RMK AO2 SLP133 T02110178
KCOU 030654Z AUTO 22008KT 10SM CLR 21/18 A2997 RMK AO2 SLP140 T02110178
KCOU 030554Z AUTO 22006KT 10SM CLR 21/18 A2999 RMK AO2 SLP146 T02060178 10283 20206 403000178 51008
KCOU 030454Z AUTO 21009KT 10SM CLR 21/18 A2998 RMK AO2 SLP143 T02110178
KCOU 030354Z AUTO 21007KT 10SM CLR 22/18 A2998 RMK AO2 SLP144 T02220178
KCOU 030254Z AUTO 20006KT 10SM CLR 23/18 A2996 RMK AO2 SLP138 T02280178 51000
KCOU 030154Z 20007KT 10SM CLR 23/18 A2996 RMK AO2 SLP138 T02330178
KCOU 030054Z 20008KT 10SM CLR 26/17 A2997 RMK AO2 SLP140 T02610172
KCOU 022354Z 20010KT 10SM CLR 28/18 A2996 RMK AO2 SLP137 T02830178 10300 20283 56013
KCOU 022254Z 21010KT 10SM CLR 29/18 A2997 RMK AO2 SLP142 T02940178
KCOU 022154Z 20011KT 10SM CLR 30/18 A2998 RMK AO2 SLP145 T03000178
KCOU 022054Z 24011KT 10SM CLR 28/18 A3000 RMK AO2 SLP151 T02830178 56015
KCOU 021954Z 24009KT 10SM CLR 29/18 A3001 RMK AO2 SLP154 T02890178
KCOU 021854Z 21011G19KT 10SM CLR 29/18 A3003 RMK AO2 SLP159 T02890178
KCOU 021754Z 24012KT 10SM CLR 28/17 A3004 RMK AO2 SLP165 T02830172 10283 20200 56012
KCOU 021654Z 24011KT 10SM CLR 28/18 A3006 RMK AO2 SLP170 T02780178
KCOU 021554Z 24010KT 10SM CLR 27/17 A3006 RMK AO2 SLP172 T02670172
KCOU 021454Z 23010KT 10SM CLR 25/18 A3008 RMK AO2 SLP178 T02500178 51002
KCOU 021354Z 23012KT 10SM CLR 23/17 A3008 RMK AO2 SLP178 T02330172
KCOU 021254Z 22012KT 10SM CLR 22/16 A3008 RMK AO2 SLP177 T02170161
KCOU 021154Z 22007KT 10SM CLR 20/16 A3007 RMK AO2 SLP176 T02000161 10211 20178 53008
KCOU 021054Z AUTO 21009KT 10SM CLR 18/16 A3006 RMK AO2 SLP171 T01830156
KCOU 020954Z AUTO 20007KT 10SM CLR 19/16 A3005 RMK AO2 SLP169 T01890156
KCOU 020854Z AUTO 19008KT 10SM CLR 19/16 A3005 RMK AO2 SLP167 T01890156 56006
KCOU 020754Z AUTO 20008KT 10SM CLR 19/16 A3005 RMK AO2 SLP168 T01940156
KCOU 020654Z AUTO 20008KT 10SM CLR 21/16 A3006 RMK AO2 SLP169 T02060161
KCOU 020554Z AUTO 19008KT 10SM CLR 21/16 A3007 RMK AO2 SLP173 T02110161 10272 20211 402890167 58004